Time;durP1;ratioP1;P1;durP2;ratioP2;P2;SDS_P1;SDS_P2;PMS_P1;PMS_P2;Temp;Humidity;BMP_temperature;BMP_pressure;BME280_temperature;BME280_humidity;BME280_pressure;Samples;Min_cycle;Max_cycle;Signal;HPM_P1;HPM_P2
2022/11/04 00:01:19;;;;;;;6.55;1.80;;;10.70;99.90;;;;;;5136538;27;20082;-49
2022/11/04 00:03:45;;;;;;;4.15;1.20;;;10.70;99.90;;;;;;5136662;27;20034;-54
2022/11/04 00:06:11;;;;;;;5.13;1.60;;;10.60;99.90;;;;;;5136872;27;20038;-45
2022/11/04 00:08:36;;;;;;;2.15;1.20;;;10.60;99.90;;;;;;5137363;27;20079;-48
2022/11/04 00:13:47;;;;;;;2.80;1.15;;;10.60;99.90;;;;;;5136190;27;20661;-47
2022/11/04 00:19:01;;;;;;;2.40;1.48;;;10.60;99.90;;;;;;5137101;27;20069;-52
2022/11/04 00:30:01;;;;;;;5.13;1.83;;;10.50;99.90;;;;;;5032499;28;20061;-50
2022/11/04 00:35:12;;;;;;;8.27;2.05;;;10.50;99.90;;;;;;5024880;28;20060;-46
2022/11/04 00:37:42;;;;;;;4.95;1.85;;;10.50;99.90;;;;;;5019552;28;20064;-47
2022/11/04 00:40:11;;;;;;;5.55;1.77;;;10.50;99.90;;;;;;5032047;28;20405;-46
2022/11/04 00:42:37;;;;;;;7.15;1.73;;;10.50;99.90;;;;;;5031087;28;20053;-49
2022/11/04 00:45:03;;;;;;;6.65;1.90;;;10.50;99.90;;;;;;5031030;28;20442;-53
2022/11/04 00:47:28;;;;;;;4.65;1.30;;;10.50;99.90;;;;;;5015273;28;20060;-51
2022/11/04 00:49:54;;;;;;;3.05;1.02;;;10.60;99.90;;;;;;5031880;28;20171;-52
2022/11/04 00:52:20;;;;;;;11.30;1.15;;;10.50;99.90;;;;;;5031194;28;20052;-47
2022/11/04 00:54:46;;;;;;;4.35;0.95;;;10.40;99.90;;;;;;5031446;28;20688;-48
2022/11/04 00:57:12;;;;;;;6.95;1.23;;;10.50;99.90;;;;;;5031548;28;20088;-46
2022/11/04 00:59:41;;;;;;;6.82;0.82;;;10.50;99.90;;;;;;5030869;28;20140;-48
2022/11/04 01:02:08;;;;;;;7.40;1.20;;;10.60;99.90;;;;;;5103633;27;20054;-54
2022/11/04 01:04:34;;;;;;;7.63;1.10;;;10.40;99.90;;;;;;5135356;27;20054;-54
2022/11/04 01:07:00;;;;;;;6.28;1.40;;;10.50;99.90;;;;;;5136298;27;20050;-45
2022/11/04 01:09:25;;;;;;;8.38;1.83;;;10.50;99.90;;;;;;5136518;27;20050;-49
2022/11/04 01:11:51;;;;;;;10.70;1.50;;;10.40;99.90;;;;;;5139062;27;20058;-57
2022/11/04 01:14:18;;;;;;;7.07;1.10;;;10.40;99.90;;;;;;5121621;27;20631;-50
2022/11/04 01:16:43;;;;;;;7.18;1.42;;;10.50;99.90;;;;;;5140366;27;20046;-52
2022/11/04 01:19:10;;;;;;;5.28;1.20;;;10.50;99.90;;;;;;5140428;27;20042;-49
2022/11/04 01:21:36;;;;;;;4.97;1.08;;;10.40;99.90;;;;;;5140614;27;20126;-53
2022/11/04 01:24:02;;;;;;;6.10;0.90;;;10.40;99.90;;;;;;5120834;27;20062;-53
2022/11/04 01:26:28;;;;;;;6.13;1.20;;;10.30;99.90;;;;;;5140096;27;20050;-53
2022/11/04 01:28:55;;;;;;;10.15;1.55;;;10.40;99.90;;;;;;5140467;27;20498;-48
2022/11/04 01:31:26;;;;;;;6.20;1.13;;;10.30;99.90;;;;;;5140778;27;20078;-50
2022/11/04 01:33:53;;;;;;;6.03;1.15;;;10.40;99.90;;;;;;5120746;27;20050;-49
2022/11/04 01:36:19;;;;;;;8.32;1.58;;;10.40;99.90;;;;;;5139691;27;20043;-53
2022/11/04 01:38:45;;;;;;;9.15;1.45;;;10.50;99.90;;;;;;5127798;27;20059;-46
2022/11/04 01:41:32;;;;;;;8.98;1.55;;;10.40;99.90;;;;;;5140262;27;20042;-46
2022/11/04 01:44:22;;;;;;;7.65;0.90;;;10.40;99.90;;;;;;5139697;27;20071;-54
2022/11/04 01:46:52;;;;;;;6.00;0.90;;;10.50;99.90;;;;;;5139339;27;20163;-55
2022/11/04 01:49:38;;;;;;;5.93;1.27;;;10.50;99.90;;;;;;5140901;27;20042;-54
2022/11/04 01:52:09;;;;;;;9.65;1.40;;;10.50;99.90;;;;;;5139392;27;20134;-48
2022/11/04 01:54:35;;;;;;;7.82;1.90;;;10.50;99.90;;;;;;5139692;27;20083;-52
2022/11/04 01:57:04;;;;;;;6.82;1.70;;;10.60;99.90;;;;;;5140329;27;20428;-50
2022/11/04 01:59:37;;;;;;;7.82;1.70;;;10.50;99.90;;;;;;5139560;27;20352;-51
2022/11/04 02:02:03;;;;;;;7.20;1.67;;;10.60;99.90;;;;;;5130955;27;20073;-47
2022/11/04 02:04:30;;;;;;;7.60;1.48;;;10.50;99.90;;;;;;5138865;27;20157;-53
2022/11/04 02:06:59;;;;;;;6.18;1.30;;;10.50;99.90;;;;;;5139662;27;20552;-50
2022/11/04 02:09:28;;;;;;;8.82;1.20;;;10.50;99.90;;;;;;5139922;27;20042;-47
2022/11/04 02:14:39;;;;;;;5.03;1.10;;;10.50;99.90;;;;;;5120980;27;20091;-56
2022/11/04 02:17:17;;;;;;;5.38;1.00;;;10.60;99.90;;;;;;5140121;27;20086;-53
2022/11/04 02:20:21;;;;;;;9.05;1.35;;;10.60;99.90;;;;;;5120956;27;20504;-48
2022/11/04 02:23:24;;;;;;;5.38;0.75;;;10.50;99.90;;;;;;5126673;27;20476;-48
2022/11/04 02:26:16;;;;;;;6.57;1.17;;;10.50;99.90;;;;;;5139019;27;20047;-47
2022/11/04 02:29:24;;;;;;;5.13;0.90;;;10.50;99.90;;;;;;5139513;27;20133;-50
2022/11/04 02:32:24;;;;;;;4.28;1.10;;;10.60;99.90;;;;;;5120927;27;20701;-50
2022/11/04 02:35:24;;;;;;;5.72;1.00;;;10.60;99.90;;;;;;5138054;27;20062;-50
2022/11/04 02:38:08;;;;;;;5.93;0.88;;;10.50;99.90;;;;;;5120168;27;20483;-56
2022/11/04 02:40:50;;;;;;;5.32;0.80;;;10.40;99.90;;;;;;5120802;27;20122;-53
2022/11/04 02:43:40;;;;;;;6.25;1.10;;;10.50;99.90;;;;;;5119521;27;20066;-50
2022/11/04 02:46:18;;;;;;;4.55;0.90;;;10.50;99.90;;;;;;5137579;27;20046;-52
2022/11/04 02:48:50;;;;;;;6.63;1.80;;;10.50;99.90;;;;;;5139125;27;20095;-51
2022/11/04 02:51:34;;;;;;;7.18;1.00;;;10.40;99.90;;;;;;5139326;27;20047;-45
2022/11/04 02:54:30;;;;;;;5.53;1.00;;;10.40;99.90;;;;;;5138527;27;20046;-51
2022/11/04 02:56:59;;;;;;;5.05;1.30;;;10.50;99.90;;;;;;5128980;27;20051;-44
2022/11/04 02:59:28;;;;;;;4.85;1.02;;;10.50;99.90;;;;;;5138716;27;20057;-51
2022/11/04 03:01:57;;;;;;;6.18;1.10;;;10.40;99.90;;;;;;5132708;27;20034;-53
2022/11/04 03:04:34;;;;;;;6.68;1.35;;;10.40;99.90;;;;;;5136042;27;20042;-54
2022/11/04 03:07:02;;;;;;;6.38;1.77;;;10.50;99.90;;;;;;5136420;27;20046;-51
2022/11/04 03:09:29;;;;;;;6.70;2.45;;;10.40;99.90;;;;;;5138173;27;20118;-52
2022/11/04 03:12:02;;;;;;;8.93;1.80;;;10.40;99.90;;;;;;5137717;27;20051;-51
2022/11/04 03:14:36;;;;;;;6.55;1.67;;;10.40;99.90;;;;;;5123976;27;20445;-54
2022/11/04 03:17:07;;;;;;;5.45;1.40;;;10.40;99.90;;;;;;5138172;27;20126;-47
2022/11/04 03:19:40;;;;;;;3.63;1.08;;;10.30;99.90;;;;;;5138336;27;20050;-48
2022/11/04 03:22:11;;;;;;;8.65;1.40;;;10.30;99.90;;;;;;5137783;27;20051;-51
2022/11/04 03:24:37;;;;;;;5.25;1.20;;;10.30;99.90;;;;;;5118252;27;20134;-52
2022/11/04 03:27:23;;;;;;;9.65;1.58;;;10.30;99.90;;;;;;5138376;27;20054;-52
2022/11/04 03:30:21;;;;;;;11.35;1.60;;;10.30;99.90;;;;;;5119124;27;21027;-49
2022/11/04 03:33:03;;;;;;;8.23;1.63;;;10.30;99.90;;;;;;5127461;27;20050;-53
2022/11/04 03:35:29;;;;;;;7.68;2.13;;;10.30;99.90;;;;;;5136965;27;20046;-52
2022/11/04 03:37:55;;;;;;;16.27;2.88;;;10.40;99.90;;;;;;5138262;27;20419;-54
2022/11/04 03:40:21;;;;;;;9.40;1.90;;;10.30;99.90;;;;;;5118931;27;20129;-50
2022/11/04 03:42:58;;;;;;;6.68;1.75;;;10.30;99.90;;;;;;5118622;27;20051;-46
2022/11/04 03:45:24;;;;;;;4.30;1.17;;;10.20;99.90;;;;;;5135948;27;20089;-45
2022/11/04 03:47:51;;;;;;;5.20;1.20;;;10.20;99.90;;;;;;5137483;27;20059;-52
2022/11/04 03:50:31;;;;;;;5.38;1.25;;;10.10;99.90;;;;;;5130356;27;20433;-47
2022/11/04 03:52:59;;;;;;;5.75;1.40;;;10.10;99.90;;;;;;5137229;27;20069;-49
2022/11/04 03:55:47;;;;;;;6.65;2.13;;;10.10;99.90;;;;;;5137898;27;20149;-49
2022/11/04 03:58:32;;;;;;;6.03;1.55;;;10.00;99.90;;;;;;5118736;27;20127;-50
2022/11/04 04:01:19;;;;;;;4.90;0.88;;;10.00;99.90;;;;;;5137281;27;20054;-56
2022/11/04 04:03:59;;;;;;;8.15;2.67;;;10.00;99.90;;;;;;5137164;27;20861;-53
2022/11/04 04:06:30;;;;;;;5.80;2.10;;;10.00;99.90;;;;;;5131744;27;20103;-53
2022/11/04 04:09:15;;;;;;;6.80;2.47;;;9.90;99.90;;;;;;5137246;27;20066;-52
2022/11/04 04:11:59;;;;;;;5.25;2.50;;;10.00;99.90;;;;;;5137148;27;20119;-51
2022/11/04 04:14:39;;;;;;;6.10;2.17;;;9.90;99.90;;;;;;5124531;27;20121;-51
2022/11/04 04:17:08;;;;;;;6.07;2.40;;;9.80;99.90;;;;;;5089188;27;20537;-49
2022/11/04 04:19:34;;;;;;;4.90;1.88;;;9.80;99.90;;;;;;5137470;27;20409;-49
2022/11/04 04:22:07;;;;;;;5.30;1.15;;;9.80;99.90;;;;;;5135966;27;20349;-53
2022/11/04 04:27:31;;;;;;;5.93;1.25;;;9.90;99.90;;;;;;5136922;27;20100;-48
2022/11/04 04:30:04;;;;;;;8.48;1.40;;;9.90;99.90;;;;;;5117959;27;20103;-48
2022/11/04 04:32:39;;;;;;;5.10;1.23;;;9.90;99.90;;;;;;5135959;27;20485;-51
2022/11/04 04:37:55;;;;;;;8.20;1.40;;;10.00;99.90;;;;;;5136471;27;20627;-46
2022/11/04 04:46:00;;;;;;;5.90;1.30;;;10.00;99.90;;;;;;5134608;27;20104;-48
2022/11/04 04:48:26;;;;;;;7.20;1.10;;;10.00;99.90;;;;;;5136464;27;20082;-49
2022/11/04 04:50:55;;;;;;;4.35;1.05;;;10.00;99.90;;;;;;5136913;27;20130;-50
2022/11/04 04:53:22;;;;;;;2.47;0.80;;;9.90;99.90;;;;;;5122536;27;20049;-52
2022/11/04 04:55:47;;;;;;;4.85;1.30;;;9.90;99.90;;;;;;5135497;27;20534;-44
2022/11/04 04:58:13;;;;;;;3.55;0.90;;;9.90;99.90;;;;;;5117909;27;20047;-47
2022/11/04 05:00:39;;;;;;;2.45;0.70;;;9.80;99.90;;;;;;5134527;27;20061;-52
2022/11/04 05:03:04;;;;;;;4.78;0.70;;;9.80;99.90;;;;;;5122336;27;20058;-52
2022/11/04 05:05:30;;;;;;;5.47;1.42;;;9.80;99.90;;;;;;5134277;27;20724;-45
2022/11/04 05:08:04;;;;;;;2.75;1.23;;;9.90;99.90;;;;;;5135922;27;20532;-47
2022/11/04 05:10:29;;;;;;;4.15;1.35;;;9.90;99.90;;;;;;5135956;27;20085;-51
2022/11/04 05:15:39;;;;;;;1.52;1.08;;;9.70;99.90;;;;;;5135662;27;20591;-47
2022/11/04 05:18:04;;;;;;;4.32;1.35;;;9.70;99.90;;;;;;5136356;27;20043;-53
2022/11/04 05:20:32;;;;;;;4.30;1.40;;;9.60;99.90;;;;;;5117373;27;20051;-45
2022/11/04 05:22:58;;;;;;;4.32;1.63;;;9.60;99.90;;;;;;5135506;27;20533;-53
2022/11/04 05:25:24;;;;;;;6.35;1.17;;;9.60;99.90;;;;;;5135473;27;20047;-50
2022/11/04 05:27:50;;;;;;;4.90;1.30;;;9.50;99.90;;;;;;5135904;27;20046;-52
2022/11/04 05:30:16;;;;;;;3.08;1.25;;;9.50;99.90;;;;;;5116894;27;20065;-48
2022/11/04 05:32:41;;;;;;;3.60;1.35;;;9.60;99.90;;;;;;5135159;27;20247;-53
2022/11/04 05:35:07;;;;;;;3.60;1.15;;;9.60;99.90;;;;;;5135528;27;20050;-50
2022/11/04 05:37:33;;;;;;;4.50;1.13;;;9.50;99.90;;;;;;5136428;27;20050;-50
2022/11/04 05:39:58;;;;;;;5.68;1.27;;;9.50;99.90;;;;;;5135880;27;20392;-52
2022/11/04 05:42:24;;;;;;;4.82;1.50;;;9.40;99.90;;;;;;5135814;27;20054;-51
2022/11/04 05:44:50;;;;;;;3.08;1.73;;;9.40;99.90;;;;;;5135012;27;20050;-51
2022/11/04 05:47:15;;;;;;;4.40;1.40;;;9.40;99.90;;;;;;5117733;27;20081;-54
2022/11/04 05:49:41;;;;;;;9.27;1.40;;;9.30;99.90;;;;;;5135243;27;20054;-48
2022/11/04 05:52:06;;;;;;;3.42;1.38;;;9.20;99.90;;;;;;5096502;28;20062;-51
2022/11/04 05:54:32;;;;;;;4.90;1.50;;;9.10;99.90;;;;;;5131869;27;20043;-45
2022/11/04 05:56:58;;;;;;;3.30;1.30;;;9.20;99.90;;;;;;5136730;27;20066;-53
2022/11/04 05:59:23;;;;;;;5.20;1.20;;;9.10;99.90;;;;;;5140026;27;20055;-50
2022/11/04 06:01:49;;;;;;;4.35;1.30;;;9.20;99.90;;;;;;5139977;27;20049;-47
2022/11/04 06:04:17;;;;;;;3.60;1.10;;;9.20;99.90;;;;;;5119108;27;20059;-46
2022/11/04 06:06:42;;;;;;;3.63;1.20;;;9.20;99.90;;;;;;5139865;27;20107;-48
2022/11/04 06:09:08;;;;;;;3.97;1.40;;;9.20;99.90;;;;;;5120811;27;20484;-57
2022/11/04 06:11:35;;;;;;;4.97;1.20;;;9.30;99.90;;;;;;5121189;27;20046;-45
2022/11/04 06:14:00;;;;;;;7.03;1.60;;;9.30;99.90;;;;;;5139038;27;20062;-48
2022/11/04 06:16:26;;;;;;;3.85;1.48;;;9.40;99.90;;;;;;5138936;27;20038;-48
2022/11/04 06:18:52;;;;;;;4.93;1.42;;;9.40;99.90;;;;;;5120015;27;20054;-49
2022/11/04 06:21:24;;;;;;;6.47;1.58;;;9.30;99.90;;;;;;5138970;27;20046;-51
2022/11/04 06:23:51;;;;;;;4.40;1.33;;;9.40;99.90;;;;;;5138922;27;20086;-44
2022/11/04 06:26:16;;;;;;;4.90;1.38;;;9.40;99.90;;;;;;5138787;27;20051;-53
2022/11/04 06:28:42;;;;;;;4.32;1.27;;;9.30;99.90;;;;;;5139104;27;20092;-50
2022/11/04 06:31:10;;;;;;;3.80;1.40;;;9.30;99.90;;;;;;5139099;27;20248;-51
2022/11/04 06:33:36;;;;;;;5.22;1.60;;;9.30;99.90;;;;;;5129962;27;20039;-44
2022/11/04 06:36:04;;;;;;;6.07;1.70;;;9.30;99.90;;;;;;5120230;27;20495;-51
2022/11/04 06:38:31;;;;;;;4.72;1.80;;;9.30;99.90;;;;;;5138537;27;20074;-48
2022/11/04 06:40:57;;;;;;;10.68;1.70;;;9.30;99.90;;;;;;5120622;27;20051;-51
2022/11/04 06:43:23;;;;;;;4.32;1.77;;;9.20;99.90;;;;;;5138191;27;20107;-53
2022/11/04 06:45:56;;;;;;;6.43;1.85;;;9.20;99.90;;;;;;5137093;27;20046;-50
2022/11/04 06:48:21;;;;;;;6.68;1.80;;;9.10;99.90;;;;;;5138274;27;20050;-49
2022/11/04 06:50:47;;;;;;;4.03;1.52;;;9.10;99.90;;;;;;5138896;27;20046;-54
2022/11/04 06:53:13;;;;;;;7.20;1.58;;;9.00;99.90;;;;;;5138215;27;20430;-52
2022/11/04 06:55:39;;;;;;;8.85;1.75;;;9.00;99.90;;;;;;5139145;27;20433;-51
2022/11/04 06:58:04;;;;;;;3.80;1.52;;;9.00;99.90;;;;;;5121161;27;20162;-52
2022/11/04 07:00:30;;;;;;;7.57;1.55;;;9.00;99.90;;;;;;5139059;27;20051;-47
2022/11/04 07:02:56;;;;;;;3.72;1.42;;;8.90;99.90;;;;;;5119867;27;20064;-49
2022/11/04 07:05:21;;;;;;;7.70;1.50;;;8.90;99.90;;;;;;5137964;27;20077;-46
2022/11/04 07:07:47;;;;;;;5.05;1.30;;;8.90;99.90;;;;;;5139018;27;20459;-54
2022/11/04 07:10:13;;;;;;;3.17;1.13;;;8.80;99.90;;;;;;5138473;27;20121;-53
2022/11/04 07:12:39;;;;;;;6.93;1.40;;;8.90;99.90;;;;;;5138672;27;20095;-47
2022/11/04 07:15:05;;;;;;;6.45;1.70;;;8.80;99.90;;;;;;5137731;27;20555;-50
2022/11/04 07:17:30;;;;;;;4.18;1.30;;;8.80;99.90;;;;;;5137316;27;20155;-49
2022/11/04 07:19:56;;;;;;;4.20;1.75;;;8.80;99.90;;;;;;5137805;27;20560;-44
2022/11/04 07:22:22;;;;;;;5.03;1.38;;;8.80;99.90;;;;;;5138234;27;20039;-43
2022/11/04 07:24:48;;;;;;;2.97;1.27;;;8.80;99.90;;;;;;5120187;27;20655;-48
2022/11/04 07:27:14;;;;;;;8.13;1.63;;;8.90;99.90;;;;;;5119974;27;20185;-53
2022/11/04 07:29:39;;;;;;;2.75;1.02;;;8.90;99.90;;;;;;5103598;27;20155;-50
2022/11/04 07:32:05;;;;;;;4.00;1.02;;;8.90;99.90;;;;;;5138642;27;20053;-49
2022/11/04 07:34:31;;;;;;;2.75;1.10;;;8.90;99.90;;;;;;5138189;27;20046;-49
2022/11/04 07:36:56;;;;;;;5.60;1.30;;;8.90;99.90;;;;;;5138048;27;20050;-52
2022/11/04 07:39:22;;;;;;;4.45;0.98;;;8.90;99.90;;;;;;5137933;27;20042;-50
2022/11/04 07:41:48;;;;;;;4.25;1.10;;;8.90;99.90;;;;;;5137221;27;20566;-51
2022/11/04 07:44:13;;;;;;;7.55;1.65;;;8.90;99.90;;;;;;5137237;27;20145;-51
2022/11/04 07:46:40;;;;;;;5.70;2.08;;;9.00;99.90;;;;;;5137262;27;20400;-48
2022/11/04 07:49:06;;;;;;;7.47;1.60;;;8.90;99.90;;;;;;5138639;27;20630;-49
2022/11/04 07:51:32;;;;;;;4.25;1.17;;;8.90;99.90;;;;;;5136937;27;20067;-43
2022/11/04 07:53:58;;;;;;;3.83;1.30;;;8.90;99.90;;;;;;5118927;27;20055;-54
2022/11/04 07:56:24;;;;;;;5.00;1.50;;;8.90;99.90;;;;;;5137833;27;20046;-53
2022/11/04 07:58:51;;;;;;;3.33;1.38;;;8.90;99.90;;;;;;5119640;27;20047;-46
2022/11/04 08:01:19;;;;;;;7.40;1.38;;;8.90;99.90;;;;;;5137196;27;20060;-49
2022/11/04 08:03:45;;;;;;;5.07;1.63;;;8.90;99.90;;;;;;5136551;27;20083;-49
2022/11/04 08:06:13;;;;;;;10.43;2.33;;;8.90;99.90;;;;;;5135686;27;20404;-53
2022/11/04 08:08:39;;;;;;;6.93;2.80;;;8.90;99.90;;;;;;5119093;27;20523;-49
2022/11/04 08:11:09;;;;;;;8.70;2.17;;;9.00;99.90;;;;;;5136686;27;20528;-50
2022/11/04 08:13:36;;;;;;;4.18;1.67;;;9.10;99.90;;;;;;5136425;27;20050;-49
2022/11/04 08:16:12;;;;;;;2.83;1.58;;;9.10;99.90;;;;;;5136900;27;20431;-48
2022/11/04 08:18:38;;;;;;;3.25;1.70;;;9.30;99.90;;;;;;5119053;27;20089;-46
2022/11/04 08:21:05;;;;;;;4.18;1.73;;;9.50;99.90;;;;;;5137345;27;20050;-46
2022/11/04 08:23:31;;;;;;;8.82;2.30;;;9.60;99.90;;;;;;5136151;27;20054;-48
2022/11/04 08:25:57;;;;;;;6.13;2.10;;;9.80;99.90;;;;;;5136205;27;20054;-52
2022/11/04 08:28:23;;;;;;;3.60;1.85;;;9.90;99.90;;;;;;5137059;27;20050;-51
2022/11/04 08:30:56;;;;;;;4.85;2.10;;;10.10;99.90;;;;;;5136930;27;20510;-47
2022/11/04 08:33:26;;;;;;;4.63;1.80;;;10.20;99.90;;;;;;5117606;27;20061;-50
2022/11/04 08:35:54;;;;;;;5.25;2.40;;;10.20;99.90;;;;;;5117484;27;20057;-47
2022/11/04 08:38:19;;;;;;;6.65;2.10;;;10.20;99.90;;;;;;5136037;27;20089;-45
2022/11/04 08:40:45;;;;;;;7.07;2.30;;;10.20;99.90;;;;;;5118427;27;20118;-50
2022/11/04 08:43:11;;;;;;;10.77;3.28;;;10.10;99.90;;;;;;5136227;27;20070;-48
2022/11/04 08:45:45;;;;;;;6.72;1.90;;;10.10;99.90;;;;;;5132666;27;20079;-47
2022/11/04 08:48:11;;;;;;;6.60;2.25;;;10.00;99.90;;;;;;5133125;27;20043;-46
2022/11/04 08:50:38;;;;;;;3.60;1.85;;;10.00;99.90;;;;;;5128181;27;20073;-50
2022/11/04 08:53:04;;;;;;;4.65;1.85;;;10.00;99.90;;;;;;5134391;27;20705;-47
2022/11/04 08:55:31;;;;;;;8.13;2.33;;;9.90;99.90;;;;;;5136374;27;20137;-50
2022/11/04 08:57:58;;;;;;;7.20;2.40;;;10.00;99.90;;;;;;5117595;27;20446;-50
2022/11/04 09:00:24;;;;;;;6.65;2.00;;;10.00;99.90;;;;;;5124362;27;20043;-46
2022/11/04 09:02:50;;;;;;;6.30;2.03;;;10.10;99.90;;;;;;5098547;27;20392;-48
2022/11/04 09:05:16;;;;;;;8.38;2.10;;;10.10;99.90;;;;;;5136006;27;20534;-46
2022/11/04 09:07:42;;;;;;;7.28;1.60;;;10.20;99.90;;;;;;5135371;27;20129;-50
2022/11/04 09:10:09;;;;;;;4.18;1.88;;;10.20;99.90;;;;;;5127216;27;20683;-45
2022/11/04 09:12:35;;;;;;;5.38;1.50;;;10.30;99.90;;;;;;5121960;27;20047;-48
2022/11/04 09:15:01;;;;;;;5.95;2.17;;;10.30;99.90;;;;;;5127423;27;20095;-53
2022/11/04 09:17:27;;;;;;;5.75;1.50;;;10.30;99.90;;;;;;5135598;27;20511;-52
2022/11/04 09:19:53;;;;;;;4.85;1.60;;;10.40;99.90;;;;;;5136167;27;20064;-49
2022/11/04 09:22:18;;;;;;;8.38;1.83;;;10.40;99.90;;;;;;5134757;27;20053;-53
2022/11/04 09:24:44;;;;;;;4.63;1.35;;;10.50;99.90;;;;;;5136015;27;20051;-49
2022/11/04 09:27:09;;;;;;;8.45;1.48;;;10.50;99.90;;;;;;5136512;27;20411;-52
2022/11/04 09:29:35;;;;;;;6.53;1.50;;;10.50;99.90;;;;;;5134929;27;20377;-45
2022/11/04 09:32:03;;;;;;;6.20;1.23;;;10.60;99.90;;;;;;5134590;27;20043;-47
2022/11/04 09:34:29;;;;;;;4.53;1.60;;;10.60;99.90;;;;;;5138589;27;20053;-52
2022/11/04 09:36:55;;;;;;;4.50;1.35;;;10.70;99.90;;;;;;5102330;27;20396;-51
2022/11/04 09:39:22;;;;;;;6.95;2.65;;;10.70;99.90;;;;;;5135874;27;20078;-44
2022/11/04 09:41:54;;;;;;;4.60;1.80;;;10.70;99.90;;;;;;5138733;27;20047;-52
2022/11/04 09:44:30;;;;;;;6.15;1.30;;;10.80;99.90;;;;;;5138623;27;20115;-54
2022/11/04 09:47:00;;;;;;;6.38;1.67;;;10.90;99.90;;;;;;5119580;27;20508;-44
2022/11/04 09:49:31;;;;;;;2.95;1.20;;;11.00;99.90;;;;;;5121124;27;20510;-44
2022/11/04 09:51:58;;;;;;;7.75;1.85;;;11.00;99.90;;;;;;5139501;27;20043;-45
2022/11/04 09:54:31;;;;;;;5.18;1.65;;;11.20;99.90;;;;;;5138676;27;20039;-47
2022/11/04 09:57:00;;;;;;;4.55;1.30;;;11.30;99.90;;;;;;5138994;27;20043;-54
2022/11/04 09:59:32;;;;;;;6.25;1.52;;;11.50;99.90;;;;;;5138768;27;20055;-43
2022/11/04 10:02:06;;;;;;;5.13;1.15;;;11.50;99.90;;;;;;5138671;27;20057;-56
2022/11/04 10:04:38;;;;;;;3.00;1.15;;;11.60;99.90;;;;;;5138482;27;20069;-48
2022/11/04 10:07:21;;;;;;;7.00;1.63;;;11.60;99.90;;;;;;5139271;27;20519;-50
2022/11/04 10:10:05;;;;;;;10.90;2.08;;;11.50;99.90;;;;;;5135380;27;20035;-54
2022/11/04 10:12:45;;;;;;;5.88;1.30;;;11.50;99.90;;;;;;5137291;27;20399;-51
2022/11/04 10:15:17;;;;;;;6.35;1.50;;;11.60;99.90;;;;;;5137376;27;20068;-48
2022/11/04 10:17:58;;;;;;;7.05;1.65;;;11.50;99.90;;;;;;5133850;27;20103;-57
2022/11/04 10:20:44;;;;;;;4.00;0.93;;;11.60;99.90;;;;;;5138208;27;20483;-53
2022/11/04 10:23:26;;;;;;;5.88;1.13;;;11.60;99.90;;;;;;5138935;27;20047;-55
2022/11/04 10:26:14;;;;;;;8.05;1.73;;;11.70;99.90;;;;;;5126887;27;20548;-42
2022/11/04 10:28:45;;;;;;;4.07;1.42;;;11.70;99.90;;;;;;5139144;27;20582;-49
2022/11/04 10:31:14;;;;;;;6.85;1.13;;;11.90;99.90;;;;;;5136431;27;20045;-59
2022/11/04 10:33:46;;;;;;;3.78;1.40;;;12.00;99.90;;;;;;5138720;27;20054;-55
2022/11/04 10:36:14;;;;;;;5.90;1.35;;;12.10;99.90;;;;;;5134939;27;20081;-50
2022/11/04 10:38:45;;;;;;;7.70;1.65;;;12.10;99.90;;;;;;5122311;27;20047;-54
2022/11/04 10:41:23;;;;;;;7.68;1.42;;;12.20;99.90;;;;;;5132883;27;20043;-60
2022/11/04 10:43:53;;;;;;;6.63;1.27;;;12.20;99.90;;;;;;5137478;27;20066;-55
2022/11/04 10:46:47;;;;;;;4.18;1.30;;;12.30;99.90;;;;;;5131866;27;20064;-55
2022/11/04 10:49:34;;;;;;;6.65;1.17;;;12.50;99.90;;;;;;5138988;27;20586;-48
2022/11/04 10:52:00;;;;;;;3.75;1.05;;;12.60;99.90;;;;;;5131209;27;20046;-49
2022/11/04 10:54:27;;;;;;;4.35;1.67;;;12.80;99.90;;;;;;5120127;27;20133;-44
2022/11/04 10:56:54;;;;;;;3.78;1.20;;;13.00;99.90;;;;;;5138565;27;20045;-43
2022/11/04 10:59:29;;;;;;;3.67;1.20;;;13.10;99.90;;;;;;5137396;27;20146;-51
2022/11/04 11:02:00;;;;;;;4.53;1.23;;;13.10;99.90;;;;;;5138184;27;20043;-51
2022/11/04 11:04:30;;;;;;;7.20;1.63;;;13.10;99.90;;;;;;5123966;27;20154;-55
2022/11/04 11:07:02;;;;;;;6.45;1.20;;;13.20;99.90;;;;;;5135567;27;20073;-51
2022/11/04 11:09:31;;;;;;;7.75;1.35;;;13.10;99.90;;;;;;5136587;27;20042;-49
2022/11/04 11:12:05;;;;;;;4.30;1.15;;;13.10;99.90;;;;;;5136292;27;20141;-42
2022/11/04 11:14:36;;;;;;;5.00;1.40;;;13.10;99.90;;;;;;5130972;27;20085;-58
2022/11/04 11:17:14;;;;;;;6.45;1.33;;;13.10;99.90;;;;;;5127626;27;20207;-50
2022/11/04 11:20:04;;;;;;;5.50;1.48;;;13.00;99.90;;;;;;5131399;27;20047;-49
2022/11/04 11:22:36;;;;;;;4.47;1.08;;;12.80;99.90;;;;;;5129965;27;20043;-43
2022/11/04 11:25:24;;;;;;;4.82;1.38;;;12.50;99.90;;;;;;5129189;27;20087;-50
2022/11/04 11:27:56;;;;;;;5.68;1.67;;;12.30;99.90;;;;;;5135777;27;20167;-52
2022/11/04 11:30:25;;;;;;;7.03;1.23;;;12.10;99.90;;;;;;5119143;27;20058;-60
2022/11/04 11:32:55;;;;;;;7.13;1.30;;;12.00;99.90;;;;;;5137304;27;20042;-58
2022/11/04 11:35:25;;;;;;;4.95;1.10;;;11.90;99.90;;;;;;5118289;27;20054;-43
2022/11/04 11:37:51;;;;;;;6.90;1.73;;;11.90;99.90;;;;;;5136727;27;20543;-55
2022/11/04 11:40:36;;;;;;;3.53;1.10;;;11.90;99.90;;;;;;5138220;27;20060;-49
2022/11/04 11:43:03;;;;;;;6.70;1.20;;;11.90;99.90;;;;;;5114987;27;20111;-47
2022/11/04 11:45:31;;;;;;;5.80;1.45;;;11.90;99.90;;;;;;5134875;27;20046;-46
2022/11/04 11:47:56;;;;;;;6.97;2.17;;;11.90;99.90;;;;;;5137310;27;20093;-56
2022/11/04 11:50:34;;;;;;;17.48;3.15;;;12.00;99.90;;;;;;5137271;27;20437;-44
2022/11/04 11:53:19;;;;;;;3.92;1.50;;;12.00;99.90;;;;;;5136332;27;20042;-52
2022/11/04 11:55:55;;;;;;;9.40;1.77;;;12.10;99.90;;;;;;5136182;27;20053;-54
2022/11/04 11:58:41;;;;;;;5.40;1.60;;;12.10;99.90;;;;;;5135095;27;20050;-58
2022/11/04 12:01:26;;;;;;;7.85;1.88;;;12.10;99.90;;;;;;5136729;27;20366;-50
2022/11/04 12:03:52;;;;;;;7.22;1.45;;;12.20;99.90;;;;;;5105259;27;20116;-57
2022/11/04 12:06:38;;;;;;;6.50;2.00;;;12.20;99.90;;;;;;5124593;27;20054;-55
2022/11/04 12:09:17;;;;;;;6.85;1.83;;;12.30;99.90;;;;;;5132755;27;20073;-55
2022/11/04 12:11:58;;;;;;;10.18;1.95;;;12.40;99.90;;;;;;5136340;27;20039;-51
2022/11/04 12:14:39;;;;;;;6.13;1.70;;;12.40;99.90;;;;;;5122623;27;20078;-57
2022/11/04 12:17:26;;;;;;;7.28;1.83;;;12.50;99.90;;;;;;5136594;27;20058;-54
2022/11/04 12:19:54;;;;;;;8.07;2.38;;;12.50;99.90;;;;;;5136360;27;20158;-54
2022/11/04 12:22:38;;;;;;;5.63;1.90;;;12.60;99.90;;;;;;5136340;27;20039;-44
2022/11/04 12:25:19;;;;;;;9.60;2.20;;;12.60;99.90;;;;;;5136000;27;20051;-44
2022/11/04 12:28:27;;;;;;;8.02;2.08;;;12.60;99.90;;;;;;5136598;27;20420;-53
2022/11/04 12:31:24;;;;;;;5.70;1.67;;;12.40;99.90;;;;;;5015292;28;20198;-59
2022/11/04 12:34:10;;;;;;;7.57;1.67;;;12.30;99.90;;;;;;4972512;28;20075;-43
2022/11/04 12:36:36;;;;;;;6.80;1.50;;;12.10;99.90;;;;;;4956526;28;20089;-51
2022/11/04 12:39:16;;;;;;;7.03;1.45;;;11.90;99.90;;;;;;4973053;28;20149;-48
2022/11/04 12:42:07;;;;;;;6.90;1.70;;;11.80;99.90;;;;;;4972560;28;20081;-54
2022/11/04 12:44:58;;;;;;;6.93;1.65;;;11.70;99.90;;;;;;4955661;28;20410;-48
2022/11/04 12:47:36;;;;;;;4.43;1.50;;;11.50;99.90;;;;;;4957014;28;20058;-54
2022/11/04 12:50:41;;;;;;;10.00;1.88;;;11.40;99.90;;;;;;4972455;28;20671;-53
2022/11/04 12:53:34;;;;;;;6.80;1.40;;;11.40;99.90;;;;;;4956042;28;20042;-48
2022/11/04 12:56:16;;;;;;;6.07;1.40;;;11.30;99.90;;;;;;4971647;28;20617;-45
2022/11/04 12:59:19;;;;;;;6.35;1.55;;;11.30;99.90;;;;;;4972523;28;20642;-53
2022/11/04 13:01:49;;;;;;;7.32;1.50;;;11.40;99.90;;;;;;4972281;28;20068;-57
2022/11/04 13:04:23;;;;;;;5.35;1.55;;;11.60;99.90;;;;;;4992314;28;20061;-51
2022/11/04 13:06:59;;;;;;;6.65;2.00;;;11.70;99.90;;;;;;5034920;28;20044;-51
2022/11/04 13:09:40;;;;;;;8.65;2.85;;;11.70;99.90;;;;;;5032214;28;20192;-46
2022/11/04 13:12:18;;;;;;;9.05;2.72;;;11.80;99.90;;;;;;5127921;27;20134;-42
2022/11/04 13:14:52;;;;;;;9.45;2.83;;;11.80;99.90;;;;;;5135870;27;20122;-48
2022/11/04 13:17:24;;;;;;;8.73;2.35;;;11.80;99.90;;;;;;5136159;27;20050;-55
2022/11/04 13:19:53;;;;;;;7.72;2.20;;;11.80;99.90;;;;;;5135977;27;20122;-50
2022/11/04 13:22:32;;;;;;;8.50;2.10;;;11.80;99.90;;;;;;5135436;27;20484;-52
2022/11/04 13:25:09;;;;;;;10.40;2.47;;;11.80;99.90;;;;;;5135858;27;20150;-57
2022/11/04 13:27:44;;;;;;;6.85;1.63;;;11.80;99.90;;;;;;5136290;27;20061;-55
2022/11/04 13:30:26;;;;;;;7.75;1.98;;;11.80;99.90;;;;;;5135576;27;20402;-53
2022/11/04 13:32:58;;;;;;;10.75;2.33;;;11.80;99.90;;;;;;5135968;27;20097;-49
2022/11/04 13:35:37;;;;;;;8.07;2.00;;;11.90;99.90;;;;;;5135409;27;20043;-50
2022/11/04 13:39:10;;;;;;;9.68;1.90;;;11.90;99.90;;;;;;5117028;27;20531;-52
2022/11/04 13:42:03;;;;;;;7.75;1.95;;;11.90;99.90;;;;;;4932908;29;20059;-44
2022/11/04 13:44:36;;;;;;;12.70;2.20;;;11.90;99.90;;;;;;4932839;29;20138;-57
2022/11/04 13:47:05;;;;;;;4.95;1.80;;;11.90;99.90;;;;;;4923719;29;20063;-51
2022/11/04 13:49:35;;;;;;;9.82;1.90;;;11.90;99.90;;;;;;4916936;29;20062;-51